Time;durP1;ratioP1;P1;durP2;ratioP2;P2;SDS_P1;SDS_P2;PMS_P1;PMS_P2;Temp;Humidity;BMP_temperature;BMP_pressure;BME280_temperature;BME280_humidity;BME280_pressure;Samples;Min_cycle;Max_cycle;Signal;HPM_P1;HPM_P2
2022/01/16 00:04:09;;;;;;;28.20;12.50;;;;;;;1.03;100.00;101939.53;2570788;30;137126;-38
2022/01/16 00:06:43;;;;;;;25.45;11.98;;;;;;;0.98;100.00;101951.50;2568784;30;138973;-38
2022/01/16 00:09:11;;;;;;;25.77;12.82;;;;;;;1.05;100.00;101969.81;2569570;30;137611;-38
2022/01/16 00:11:41;;;;;;;25.50;12.15;;;;;;;1.02;100.00;101964.69;2566863;30;139427;-38
2022/01/16 00:14:11;;;;;;;27.95;13.25;;;;;;;1.00;100.00;101956.75;2570243;30;137093;-38
2022/01/16 00:16:39;;;;;;;27.65;13.38;;;;;;;1.02;100.00;101951.25;2566946;30;137904;-38
2022/01/16 00:19:08;;;;;;;29.42;14.27;;;;;;;0.97;100.00;101952.47;2569662;30;137659;-39
2022/01/16 00:21:39;;;;;;;33.45;15.50;;;;;;;0.95;100.00;101956.28;2566958;30;137927;-38
2022/01/16 00:24:08;;;;;;;28.45;14.05;;;;;;;0.92;100.00;101967.25;2568763;30;137681;-38
2022/01/16 00:26:37;;;;;;;30.85;15.10;;;;;;;0.96;100.00;101958.00;2571017;30;137394;-38
2022/01/16 00:29:07;;;;;;;31.63;13.85;;;;;;;0.98;100.00;101946.13;2569092;30;137890;-38
2022/01/16 00:31:38;;;;;;;31.35;14.27;;;;;;;1.04;100.00;101951.97;2569367;30;138543;-38
2022/01/16 00:34:08;;;;;;;31.55;14.80;;;;;;;1.06;100.00;101945.53;2570659;30;137413;-38
2022/01/16 00:36:36;;;;;;;29.92;13.32;;;;;;;1.04;100.00;101949.28;2567868;30;137724;-38
2022/01/16 00:39:05;;;;;;;24.60;12.70;;;;;;;1.04;100.00;101965.41;2570196;30;138706;-38
2022/01/16 00:41:35;;;;;;;25.13;13.25;;;;;;;1.02;100.00;101967.38;2568213;30;138458;-38
2022/01/16 00:44:04;;;;;;;26.80;13.15;;;;;;;1.02;100.00;101970.06;2569480;30;136809;-39
2022/01/16 00:46:33;;;;;;;28.83;12.30;;;;;;;1.02;100.00;101953.94;2571394;30;139102;-38
2022/01/16 00:49:02;;;;;;;26.30;12.15;;;;;;;1.02;100.00;101964.69;2570208;30;138256;-38
2022/01/16 00:51:30;;;;;;;23.90;12.18;;;;;;;1.04;100.00;101976.16;2569298;30;138635;-38
2022/01/16 00:53:58;;;;;;;;;;;;;;;1.03;100.00;101969.09;2578137;30;137979;-41
2022/01/16 00:56:26;;;;;;;22.42;11.57;;;;;;;1.04;100.00;101977.03;2568530;30;137410;-41
2022/01/16 00:58:54;;;;;;;;;;;;;;;1.06;100.00;101972.41;2568164;30;137485;-41
2022/01/16 01:01:24;;;;;;;23.63;10.88;;;;;;;1.09;100.00;101949.81;2568409;30;139144;-41
2022/01/16 01:03:53;;;;;;;21.90;11.38;;;;;;;1.05;100.00;101933.06;2568789;30;137700;-41
2022/01/16 01:06:21;;;;;;;21.40;11.75;;;;;;;1.13;100.00;101943.19;2568997;30;138377;-41
2022/01/16 01:08:55;;;;;;;23.77;11.32;;;;;;;1.11;100.00;101958.59;2567208;30;137551;-41
2022/01/16 01:11:28;;;;;;;20.08;10.07;;;;;;;1.10;100.00;101973.84;2567770;30;139228;-41
2022/01/16 01:16:51;;;;;;;22.58;10.57;;;;;;;1.10;100.00;101973.03;2568022;30;138314;-41
2022/01/16 01:19:28;;;;;;;21.98;11.20;;;;;;;1.15;100.00;101981.56;2565737;30;138597;-40
2022/01/16 01:21:57;;;;;;;22.20;11.30;;;;;;;1.12;100.00;101960.31;2567263;30;138267;-41
2022/01/16 01:24:27;;;;;;;20.83;10.50;;;;;;;1.16;100.00;101964.47;2566927;30;138708;-41
2022/01/16 01:27:03;;;;;;;23.55;12.13;;;;;;;1.09;100.00;101992.81;2568691;30;138273;-41
2022/01/16 01:29:31;;;;;;;22.13;12.20;;;;;;;1.10;100.00;101970.34;2568399;30;138249;-41
2022/01/16 01:32:00;;;;;;;22.88;11.25;;;;;;;1.13;100.00;101979.00;2567167;30;138256;-41
2022/01/16 01:34:30;;;;;;;24.30;12.40;;;;;;;1.14;100.00;101969.09;2567123;30;138139;-41
2022/01/16 01:36:58;;;;;;;25.45;12.55;;;;;;;1.10;100.00;101911.19;2568363;30;137265;-41
2022/01/16 01:39:26;;;;;;;;;;;;;;;1.09;100.00;101904.09;2567696;30;138431;-41
2022/01/16 01:42:07;;;;;;;29.90;13.20;;;;;;;1.12;100.00;101903.84;2565967;30;137251;-41
2022/01/16 01:52:58;;;;;;;31.00;14.25;;;;;;;1.10;100.00;101954.19;2567898;30;138231;-41
2022/01/16 01:55:27;;;;;;;28.23;14.48;;;;;;;1.09;100.00;101964.09;2567849;30;137241;-41
2022/01/16 01:57:55;;;;;;;35.22;14.35;;;;;;;1.12;100.00;101966.53;2567797;30;137480;-41
2022/01/16 02:00:25;;;;;;;35.05;15.23;;;;;;;1.16;100.00;101969.84;2567499;30;136650;-41
2022/01/16 02:05:42;;;;;;;39.83;16.58;;;;;;;1.13;100.00;101968.25;2567846;30;137581;-41
2022/01/16 02:08:11;;;;;;;36.80;15.45;;;;;;;1.12;100.00;101984.50;2568293;30;137383;-41
2022/01/16 02:10:40;;;;;;;41.20;17.33;;;;;;;1.16;100.00;101967.16;2564995;30;137334;-41
2022/01/16 02:13:16;;;;;;;40.70;16.38;;;;;;;1.16;100.00;101967.16;2567810;30;137867;-41
2022/01/16 02:34:43;;;;;;;31.55;14.63;;;;;;;1.16;100.00;101985.97;2567428;30;137767;-41
2022/01/16 02:37:14;;;;;;;29.42;14.45;;;;;;;1.14;100.00;101982.53;2567468;30;137793;-41
2022/01/16 02:39:49;;;;;;;29.42;14.60;;;;;;;1.15;100.00;101989.63;2569013;30;138253;-41
2022/01/16 02:42:19;;;;;;;28.95;14.32;;;;;;;1.15;100.00;101978.88;2567045;30;137389;-40
2022/01/16 02:45:00;;;;;;;32.63;14.25;;;;;;;1.13;100.00;101980.84;2566676;30;138434;-41
2022/01/16 02:47:28;;;;;;;32.65;14.60;;;;;;;1.12;100.00;101963.84;2568973;30;136745;-41
2022/01/16 02:50:16;;;;;;;31.33;15.32;;;;;;;1.07;100.00;101946.38;2568410;30;137746;-41
2022/01/16 02:52:44;;;;;;;28.88;14.63;;;;;;;1.04;100.00;101946.59;2567036;30;136704;-41
2022/01/16 02:55:14;;;;;;;30.33;13.90;;;;;;;0.99;100.00;101939.75;2567352;30;138579;-40
2022/01/16 02:57:42;;;;;;;32.85;14.80;;;;;;;0.95;100.00;101932.94;2567881;30;137661;-41
2022/01/16 03:00:10;;;;;;;;;;;;;;;0.96;100.00;101929.25;2568276;30;139186;-41
2022/01/16 03:02:38;;;;;;;28.85;13.95;;;;;;;0.99;100.00;101930.88;2568322;30;137063;-40
2022/01/16 03:05:06;;;;;;;;;;;;;;;1.00;100.00;101932.56;2567871;30;138010;-40
2022/01/16 03:07:35;;;;;;;32.15;15.20;;;;;;;0.95;100.00;101924.03;2568811;30;137054;-41
2022/01/16 03:10:22;;;;;;;33.92;14.82;;;;;;;0.96;100.00;101921.19;2567868;30;139255;-41
2022/01/16 03:12:52;;;;;;;32.33;14.00;;;;;;;0.91;100.00;101912.66;2567445;30;137311;-41
2022/01/16 03:15:21;;;;;;;33.33;15.48;;;;;;;0.91;100.00;101909.97;2568457;30;138083;-41
2022/01/16 03:23:15;;;;;;;31.73;15.05;;;;;;;0.90;100.00;101916.31;2566454;30;137024;-41
2022/01/16 03:25:43;;;;;;;29.27;14.80;;;;;;;0.97;100.00;101922.91;2567804;30;137924;-41
2022/01/16 03:28:12;;;;;;;34.78;15.02;;;;;;;0.92;100.00;101914.38;2568619;30;138353;-41
2022/01/16 03:30:40;;;;;;;32.53;15.43;;;;;;;0.96;100.00;101915.00;2567770;30;139014;-41
2022/01/16 03:33:08;;;;;;;;;;;;;;;0.95;100.00;101921.34;2569339;30;137040;-41
2022/01/16 03:35:37;;;;;;;34.65;16.70;;;;;;;0.96;100.00;101915.81;2567844;30;138495;-40
2022/01/16 03:38:05;;;;;;;35.90;17.20;;;;;;;0.94;100.00;101917.78;2567571;30;137721;-40
2022/01/16 03:40:33;;;;;;;36.10;17.25;;;;;;;0.90;100.00;101919.00;2566345;30;138275;-40
2022/01/16 03:43:12;;;;;;;40.38;17.95;;;;;;;0.85;100.00;101914.00;2566047;30;137158;-40
2022/01/16 03:45:46;;;;;;;40.28;18.85;;;;;;;0.79;100.00;101902.88;2567592;30;137425;-40
2022/01/16 03:48:15;;;;;;;42.03;18.95;;;;;;;0.74;100.00;101897.00;2567645;30;137563;-41
2022/01/16 03:50:43;;;;;;;40.95;18.60;;;;;;;0.78;100.00;101904.72;2566975;30;138209;-41
2022/01/16 03:53:11;;;;;;;43.17;19.02;;;;;;;0.73;100.00;101898.00;2567714;30;136776;-41
2022/01/16 03:55:39;;;;;;;;;;;;;;;0.71;100.00;101919.63;2568116;30;138493;-41
2022/01/16 03:58:07;;;;;;;44.78;19.58;;;;;;;0.75;100.00;101920.22;2567957;30;137027;-41
2022/01/16 04:00:35;;;;;;;49.00;20.63;;;;;;;0.72;100.00;101921.31;2568899;30;138230;-41
2022/01/16 04:03:03;;;;;;;;;;;;;;;0.77;100.00;101923.63;2568764;30;136802;-41
2022/01/16 04:05:30;;;;;;;43.35;17.58;;;;;;;0.74;100.00;101922.06;2566371;30;138451;-41
2022/01/16 04:08:01;;;;;;;55.63;20.88;;;;;;;0.74;100.00;101926.56;2567463;30;137455;-40
2022/01/16 04:10:29;;;;;;;52.47;21.92;;;;;;;0.76;100.00;101929.97;2567862;30;137632;-41
2022/01/16 04:12:57;;;;;;;43.97;20.65;;;;;;;0.73;100.00;101930.22;2569520;30;137618;-41
2022/01/16 04:15:31;;;;;;;;;;;;;;;0.74;100.00;101932.81;2568876;30;138234;-41
2022/01/16 04:18:02;;;;;;;48.92;19.42;;;;;;;0.81;100.00;101923.28;2568783;30;137001;-41
2022/01/16 04:20:30;;;;;;;50.25;21.52;;;;;;;0.75;100.00;101923.78;2568586;30;138368;-41
2022/01/16 04:22:58;;;;;;;50.67;21.40;;;;;;;0.76;100.00;101924.59;2568948;30;137108;-41
2022/01/16 04:25:25;;;;;;;;;;;;;;;0.76;100.00;101924.59;2568033;30;138440;-41
2022/01/16 04:27:54;;;;;;;48.45;20.88;;;;;;;0.77;100.00;101916.44;2568084;30;137494;-41
2022/01/16 04:30:22;;;;;;;49.83;21.20;;;;;;;0.82;100.00;101918.78;2567863;30;137560;-41
2022/01/16 04:32:50;;;;;;;52.33;22.38;;;;;;;0.86;100.00;101914.84;2569274;30;137690;-41
2022/01/16 04:35:18;;;;;;;;;;;;;;;0.83;100.00;101909.72;2569053;30;137944;-41
2022/01/16 04:37:46;;;;;;;48.35;20.98;;;;;;;0.83;100.00;101915.94;2567322;30;137428;-41
2022/01/16 04:40:40;;;;;;;56.80;22.58;;;;;;;0.83;100.00;101920.47;2568773;30;139254;-41
2022/01/16 04:45:58;;;;;;;52.22;21.95;;;;;;;0.86;100.00;101931.81;2568988;30;139298;-41
2022/01/16 04:48:26;;;;;;;50.88;23.17;;;;;;;0.86;100.00;101928.28;2567810;30;138169;-41
2022/01/16 04:50:54;;;;;;;52.83;22.85;;;;;;;0.86;100.00;101934.50;2569007;30;137259;-41
2022/01/16 04:53:22;;;;;;;54.47;23.27;;;;;;;0.91;100.00;101923.41;2568008;30;136892;-41
2022/01/16 04:55:50;;;;;;;61.15;23.20;;;;;;;0.92;100.00;101926.94;2567327;30;137880;-41
2022/01/16 04:58:20;;;;;;;51.25;23.02;;;;;;;0.92;100.00;101926.94;2567903;30;136948;-41
2022/01/16 05:00:54;;;;;;;53.15;21.67;;;;;;;0.94;100.00;101925.00;2568840;30;139325;-41
2022/01/16 05:03:24;;;;;;;54.50;22.95;;;;;;;0.91;100.00;101919.84;2567825;30;138232;-41
2022/01/16 05:05:53;;;;;;;53.92;23.95;;;;;;;0.95;100.00;101913.28;2568094;30;137871;-41
2022/01/16 05:08:20;;;;;;;51.15;22.13;;;;;;;0.97;100.00;101909.47;2568931;30;138202;-41
2022/01/16 05:10:53;;;;;;;55.35;21.88;;;;;;;1.07;100.00;101916.81;2567434;30;138766;-41
2022/01/16 05:18:43;;;;;;;52.42;21.48;;;;;;;1.02;100.00;101893.00;2568772;30;138412;-41
2022/01/16 05:21:11;;;;;;;54.80;21.77;;;;;;;1.05;100.00;101900.81;2567589;30;139145;-41
2022/01/16 05:23:41;;;;;;;54.28;23.42;;;;;;;1.06;100.00;101904.31;2566674;30;137868;-41
2022/01/16 05:26:10;;;;;;;49.40;21.63;;;;;;;1.08;100.00;101888.97;2568746;30;138203;-41
2022/01/16 05:28:39;;;;;;;48.17;23.27;;;;;;;1.05;100.00;101886.50;2567903;30;137788;-41
2022/01/16 05:31:06;;;;;;;;;;;;;;;1.12;100.00;101890.41;2565834;30;138218;-41
2022/01/16 05:33:34;;;;;;;52.22;22.20;;;;;;;1.11;100.00;101900.31;2568111;30;136599;-41
2022/01/16 05:36:03;;;;;;;51.70;22.77;;;;;;;1.13;100.00;101900.19;2567610;30;138243;-41
2022/01/16 05:38:30;;;;;;;50.55;23.90;;;;;;;1.15;100.00;101904.44;2569403;30;137510;-41
2022/01/16 05:40:58;;;;;;;53.83;23.63;;;;;;;1.20;100.00;101911.31;2567766;30;138434;-41
2022/01/16 05:43:26;;;;;;;49.72;22.20;;;;;;;1.21;100.00;101905.78;2568457;30;137533;-40
2022/01/16 05:45:54;;;;;;;;;;;;;;;1.21;100.00;101913.84;2566206;30;138679;-41
2022/01/16 05:48:22;;;;;;;52.40;23.10;;;;;;;1.23;100.00;101916.44;2568225;30;137905;-41
2022/01/16 05:50:50;;;;;;;53.50;23.95;;;;;;;1.32;100.00;101922.88;2567017;30;138411;-41
2022/01/16 05:53:17;;;;;;;46.03;23.20;;;;;;;1.30;100.00;101920.34;2567694;30;137400;-41
2022/01/16 05:55:45;;;;;;;56.28;25.83;;;;;;;1.32;100.00;101929.13;2567910;30;138859;-41
2022/01/16 05:58:14;;;;;;;49.95;23.98;;;;;;;1.37;100.00;101932.28;2568877;30;136933;-40
2022/01/16 06:00:44;;;;;;;52.88;23.88;;;;;;;1.38;100.00;101920.56;2568984;30;138454;-41
2022/01/16 06:03:12;;;;;;;51.08;24.25;;;;;;;1.33;100.00;101917.38;2568053;30;136616;-41
2022/01/16 06:05:40;;;;;;;55.28;24.67;;;;;;;1.35;100.00;101910.03;2568349;30;137577;-41
2022/01/16 06:08:11;;;;;;;;;;;;;;;1.37;100.00;101904.56;2569448;30;138206;-41
2022/01/16 06:10:39;;;;;;;46.58;21.98;;;;;;;1.37;100.00;101901.88;2568325;30;138334;-41
2022/01/16 06:13:08;;;;;;;48.60;23.13;;;;;;;1.40;100.00;101898.91;2566708;30;137803;-41
2022/01/16 06:15:37;;;;;;;47.83;22.85;;;;;;;1.40;100.00;101901.63;2568688;30;136731;-41
2022/01/16 06:18:06;;;;;;;48.38;23.98;;;;;;;1.38;100.00;101900.88;2565893;30;137928;-41
2022/01/16 06:20:35;;;;;;;46.92;23.33;;;;;;;1.41;100.00;101900.63;2568183;30;138166;-41
2022/01/16 06:23:03;;;;;;;51.67;23.20;;;;;;;1.46;100.00;101901.09;2567131;30;137746;-41
2022/01/16 06:25:31;;;;;;;;;;;;;;;1.46;100.00;101911.00;2567821;30;138520;-41
2022/01/16 06:27:59;;;;;;;44.83;22.52;;;;;;;1.46;100.00;101911.00;2568571;30;137410;-41
2022/01/16 06:30:26;;;;;;;;;;;;;;;1.47;100.00;101918.13;2568217;30;137341;-41
2022/01/16 06:32:54;;;;;;;49.30;23.33;;;;;;;1.46;100.00;101922.63;2566663;30;137168;-41
2022/01/16 06:35:23;;;;;;;52.88;24.13;;;;;;;1.51;100.00;101922.25;2567576;30;138658;-41
2022/01/16 06:37:51;;;;;;;50.85;24.65;;;;;;;1.60;100.00;101923.34;2567935;30;138220;-41
2022/01/16 06:40:18;;;;;;;;;;;;;;;1.64;100.00;101932.84;2566432;30;138651;-41
2022/01/16 06:42:47;;;;;;;50.05;23.13;;;;;;;1.62;100.00;101937.50;2567566;30;136743;-41
2022/01/16 06:45:15;;;;;;;46.97;23.15;;;;;;;1.61;100.00;101947.41;2567198;30;138999;-41
2022/01/16 06:47:42;;;;;;;;;;;;;;;1.68;100.00;101940.53;2569149;30;136725;-41
2022/01/16 06:50:11;;;;;;;52.05;23.70;;;;;;;1.68;100.00;101928.94;2568702;30;138064;-41
2022/01/16 06:54:54;;;;;;;50.92;22.42;;;;;;;1.67;100.00;101929.91;2568979;30;138014;-39
2022/01/16 06:57:22;;;;;;;47.63;23.73;;;;;;;1.63;100.00;101929.31;2569857;30;137419;-38
2022/01/16 06:59:50;;;;;;;;;;;;;;;1.62;100.00;101937.50;2570738;30;137706;-38
2022/01/16 07:02:18;;;;;;;46.85;22.35;;;;;;;1.64;100.00;101940.94;2568951;30;137457;-38
2022/01/16 07:04:47;;;;;;;51.90;24.23;;;;;;;1.64;100.00;101935.56;2569915;30;136815;-38
2022/01/16 07:07:15;;;;;;;50.58;24.58;;;;;;;1.72;100.00;101933.06;2571724;30;138235;-38
2022/01/16 07:09:45;;;;;;;48.10;23.63;;;;;;;1.69;100.00;101944.09;2570611;30;137599;-38
2022/01/16 07:12:13;;;;;;;53.17;24.17;;;;;;;1.74;100.00;101941.88;2568878;30;138390;-45
2022/01/16 07:14:42;;;;;;;54.45;25.70;;;;;;;1.72;100.00;101938.47;2568875;30;137174;-38
2022/01/16 07:17:11;;;;;;;49.72;24.00;;;;;;;1.73;100.00;101950.94;2568045;30;139265;-38
2022/01/16 07:19:39;;;;;;;47.30;23.60;;;;;;;1.75;100.00;101956.19;2566351;30;138046;-39
2022/01/16 07:22:07;;;;;;;49.95;24.70;;;;;;;1.76;100.00;101963.28;2569745;30;138892;-38
2022/01/16 07:24:35;;;;;;;52.58;25.25;;;;;;;1.77;100.00;101971.22;2569993;30;138217;-38
2022/01/16 07:27:03;;;;;;;53.45;24.92;;;;;;;1.78;100.00;101964.84;2568239;30;138571;-38
2022/01/16 07:29:32;;;;;;;51.00;24.83;;;;;;;1.76;100.00;101963.28;2567682;30;138947;-38
2022/01/16 07:32:00;;;;;;;51.38;25.10;;;;;;;1.77;100.00;101962.31;2569847;30;138315;-40
2022/01/16 07:34:28;;;;;;;;;;;;;;;1.79;100.00;101968.41;2566731;30;137678;-38
2022/01/16 07:36:56;;;;;;;51.60;24.65;;;;;;;1.86;100.00;101964.22;2569074;30;139533;-38
2022/01/16 07:39:24;;;;;;;55.60;24.67;;;;;;;1.82;100.00;101974.38;2570367;30;138313;-38
2022/01/16 07:41:52;;;;;;;;;;;;;;;1.83;100.00;101978.78;2569931;30;138402;-38
2022/01/16 07:44:20;;;;;;;49.23;24.90;;;;;;;1.88;100.00;101978.41;2569166;30;136879;-39
2022/01/16 07:46:49;;;;;;;;;;;;;;;1.90;100.00;101986.38;2570503;30;138266;-39
2022/01/16 07:49:17;;;;;;;53.30;23.77;;;;;;;1.93;100.00;101976.19;2569295;30;138109;-38
2022/01/16 07:51:44;;;;;;;55.90;25.38;;;;;;;1.98;100.00;101987.41;2568708;30;138488;-38
2022/01/16 07:54:12;;;;;;;50.60;23.70;;;;;;;1.95;100.00;101992.22;2568808;30;137796;-39
2022/01/16 07:56:40;;;;;;;;;;;;;;;2.00;100.00;101988.16;2568291;30;137276;-38
2022/01/16 07:59:08;;;;;;;54.53;24.27;;;;;;;2.00;100.00;101990.00;2569930;30;136781;-38
2022/01/16 08:01:36;;;;;;;52.47;25.08;;;;;;;2.02;100.00;101993.41;2571331;30;136698;-38
2022/01/16 08:04:04;;;;;;;;;;;;;;;1.99;100.00;102002.63;2569067;30;137094;-38
2022/01/16 08:06:32;;;;;;;53.20;24.13;;;;;;;2.05;100.00;102001.22;2567650;30;137393;-38
2022/01/16 08:09:00;;;;;;;;;;;;;;;2.08;100.00;101992.91;2567904;30;137812;-38
2022/01/16 08:11:27;;;;;;;51.33;24.08;;;;;;;2.08;100.00;101987.50;2572363;30;137203;-38
2022/01/16 08:13:55;;;;;;;54.70;24.98;;;;;;;2.07;100.00;101996.56;2570331;30;137638;-39
2022/01/16 08:16:24;;;;;;;53.58;25.33;;;;;;;2.07;100.00;101999.25;2568569;30;138449;-38
2022/01/16 08:18:52;;;;;;;52.55;25.00;;;;;;;2.12;100.00;101991.69;2570971;30;136720;-38
2022/01/16 08:21:20;;;;;;;55.25;26.73;;;;;;;2.15;100.00;101991.44;2569919;30;138371;-38
2022/01/16 08:23:47;;;;;;;;;;;;;;;2.15;100.00;101999.50;2567306;30;137153;-39
2022/01/16 08:26:15;;;;;;;55.38;25.60;;;;;;;2.19;100.00;101991.16;2568885;30;137865;-38
2022/01/16 08:28:43;;;;;;;;;;;;;;;2.24;100.00;101997.00;2570756;30;137041;-39
2022/01/16 08:31:11;;;;;;;47.72;23.48;;;;;;;2.28;100.00;101998.47;2567397;30;137758;-38
2022/01/16 08:33:39;;;;;;;;;;;;;;;2.27;100.00;101989.53;2568074;30;138482;-38
2022/01/16 08:36:07;;;;;;;52.72;25.25;;;;;;;2.30;100.00;101996.50;2568431;30;138467;-38
2022/01/16 08:38:35;;;;;;;55.22;25.65;;;;;;;2.33;100.00;102001.63;2568135;30;136801;-38
2022/01/16 08:41:03;;;;;;;53.90;25.95;;;;;;;2.35;100.00;102007.72;2569773;30;138252;-38
2022/01/16 08:43:31;;;;;;;52.05;25.90;;;;;;;2.38;100.00;102010.16;2569957;30;138744;-38
2022/01/16 08:45:59;;;;;;;54.25;26.02;;;;;;;2.43;100.00;102010.66;2570119;30;137032;-38
2022/01/16 08:48:28;;;;;;;;;;;;;;;2.40;100.00;102016.28;2571010;30;137001;-38
2022/01/16 08:50:56;;;;;;;52.55;24.48;;;;;;;2.44;100.00;102020.44;2568751;30;137365;-39
2022/01/16 08:53:24;;;;;;;51.67;26.00;;;;;;;2.42;100.00;102017.03;2567009;30;137119;-38
2022/01/16 08:55:52;;;;;;;;;;;;;;;2.39;100.00;102024.50;2569338;30;137499;-38
2022/01/16 08:58:20;;;;;;;52.78;25.15;;;;;;;2.41;100.00;102028.78;2569570;30;137015;-38
2022/01/16 09:00:50;;;;;;;53.25;24.38;;;;;;;2.42;100.00;102035.88;2569798;30;138376;-38
2022/01/16 09:03:22;;;;;;;51.78;24.20;;;;;;;2.49;100.00;102040.75;2571291;30;137659;-38
2022/01/16 09:05:51;;;;;;;52.55;25.83;;;;;;;2.49;100.00;102027.28;2569274;30;137535;-38
2022/01/16 09:08:19;;;;;;;50.15;24.95;;;;;;;2.47;100.00;102029.25;2570750;30;137463;-38
2022/01/16 09:10:48;;;;;;;52.30;24.23;;;;;;;2.43;100.00;102026.81;2568692;30;137512;-39
2022/01/16 09:13:16;;;;;;;51.30;24.73;;;;;;;2.44;100.00;102033.91;2568872;30;136929;-39
2022/01/16 09:15:47;;;;;;;50.22;23.45;;;;;;;2.52;100.00;102044.03;2567972;30;139683;-38
2022/01/16 09:18:16;;;;;;;53.60;24.48;;;;;;;2.59;100.00;102049.75;2568800;30;137529;-38
2022/01/16 09:20:45;;;;;;;46.83;22.35;;;;;;;2.61;100.00;102049.63;2568402;30;137613;-38
2022/01/16 09:23:13;;;;;;;48.30;24.15;;;;;;;2.69;100.00;102057.91;2569118;30;138224;-38
2022/01/16 09:25:41;;;;;;;46.72;23.25;;;;;;;2.67;100.00;102051.78;2566307;30;138444;-38
2022/01/16 09:28:09;;;;;;;;;;;;;;;2.72;100.00;102055.81;2571160;30;137710;-38
2022/01/16 09:30:37;;;;;;;43.55;21.35;;;;;;;2.74;100.00;102058.38;2568713;30;137397;-38
2022/01/16 09:33:05;;;;;;;;;;;;;;;2.77;100.00;102046.47;2570939;30;136792;-38
2022/01/16 09:35:33;;;;;;;47.00;22.10;;;;;;;2.78;100.00;102058.97;2569987;30;138767;-38
2022/01/16 09:38:03;;;;;;;52.28;23.65;;;;;;;2.84;100.00;102064.72;2569053;30;136865;-38
2022/01/16 09:40:31;;;;;;;49.60;23.48;;;;;;;2.89;100.00;102066.97;2570750;30;137445;-38
2022/01/16 09:42:59;;;;;;;51.90;22.33;;;;;;;2.90;100.00;102063.31;2570909;30;137014;-38
2022/01/16 09:45:27;;;;;;;47.63;23.23;;;;;;;2.97;100.00;102069.91;2570820;30;138423;-39
2022/01/16 09:47:55;;;;;;;46.63;22.20;;;;;;;2.99;100.00;102069.75;2570087;30;137546;-39
2022/01/16 09:50:24;;;;;;;;;;;;;;;3.02;100.00;102072.19;2570178;30;138159;-38
2022/01/16 09:52:52;;;;;;;;;;;;;;;3.04;100.00;102069.38;2570076;30;138166;-38
2022/01/16 09:55:21;;;;;;;45.20;20.30;;;;;;;3.09;100.00;102075.22;2569855;30;138509;-38
2022/01/16 09:57:50;;;;;;;45.72;21.40;;;;;;;3.15;100.00;102071.97;2570846;30;137288;-38
2022/01/16 10:00:21;;;;;;;46.30;20.60;;;;;;;3.19;100.00;102078.84;2568948;30;138440;-38
2022/01/16 10:02:50;;;;;;;48.72;22.08;;;;;;;3.20;100.00;102077.84;2569374;30;137178;-38
2022/01/16 10:05:35;;;;;;;49.15;22.15;;;;;;;3.18;100.00;102071.72;2573802;30;139291;-38
2022/01/16 10:08:08;;;;;;;45.40;20.95;;;;;;;3.17;100.00;102078.09;2568608;30;136851;-38
2022/01/16 10:10:42;;;;;;;44.90;21.38;;;;;;;3.19;100.00;102080.66;2568675;30;137877;-38
2022/01/16 10:13:38;;;;;;;45.53;21.48;;;;;;;3.16;100.00;102084.47;2569062;30;137548;-39
2022/01/16 10:16:06;;;;;;;40.80;19.83;;;;;;;3.18;100.00;102082.50;2570128;30;138614;-38
2022/01/16 10:18:38;;;;;;;;;;;;;;;3.16;100.00;102079.94;2567783;30;138389;-38
2022/01/16 10:21:08;;;;;;;38.55;18.90;;;;;;;3.19;100.00;102089.63;2568157;30;138404;-38
2022/01/16 10:23:41;;;;;;;40.65;20.33;;;;;;;3.19;100.00;102083.38;2569937;30;137042;-38
2022/01/16 10:26:20;;;;;;;42.05;20.45;;;;;;;3.21;100.00;102087.66;2571165;30;137220;-38
2022/01/16 10:28:52;;;;;;;43.47;20.70;;;;;;;3.26;100.00;102076.44;2569366;30;137011;-38
2022/01/16 10:31:26;;;;;;;40.95;19.77;;;;;;;3.28;100.00;102085.25;2570065;30;137573;-38
2022/01/16 10:33:55;;;;;;;43.13;21.35;;;;;;;3.28;100.00;102094.22;2567801;30;137499;-38
2022/01/16 10:36:38;;;;;;;49.20;22.20;;;;;;;3.32;100.00;102086.72;2567981;30;139130;-38
2022/01/16 10:39:09;;;;;;;49.85;21.60;;;;;;;3.29;100.00;102087.84;2568799;30;137472;-38
2022/01/16 10:41:38;;;;;;;43.10;21.33;;;;;;;3.32;100.00;102086.72;2571386;30;136809;-38
2022/01/16 10:44:30;;;;;;;46.92;20.08;;;;;;;3.34;100.00;102090.13;2567750;30;138123;-37
2022/01/16 10:47:18;;;;;;;47.97;21.35;;;;;;;3.40;100.00;102088.72;2565846;30;138507;-39
2022/01/16 10:50:00;;;;;;;46.28;21.80;;;;;;;3.34;100.00;102098.22;2567570;30;138092;-38
2022/01/16 10:52:29;;;;;;;51.38;22.15;;;;;;;3.39;100.00;102097.81;2568403;30;137819;-38
2022/01/16 10:55:08;;;;;;;51.17;21.92;;;;;;;3.39;100.00;102097.81;2568638;30;138996;-38
2022/01/16 10:57:36;;;;;;;47.80;22.65;;;;;;;3.42;100.00;102100.25;2568792;30;137378;-38
2022/01/16 11:00:07;;;;;;;48.20;22.77;;;;;;;3.43;100.00;102107.34;2569672;30;137213;-39
2022/01/16 11:02:35;;;;;;;51.20;21.67;;;;;;;3.42;100.00;102100.25;2567292;30;137743;-38
2022/01/16 11:05:12;;;;;;;50.15;22.52;;;;;;;3.45;100.00;102108.94;2571174;30;137372;-38
2022/01/16 11:07:42;;;;;;;48.75;22.25;;;;;;;3.46;100.00;102101.72;2567340;30;137737;-38
2022/01/16 11:10:27;;;;;;;54.05;23.52;;;;;;;3.51;100.00;102115.66;2571234;30;137523;-38
2022/01/16 11:12:58;;;;;;;53.30;23.98;;;;;;;3.56;100.00;102129.59;2565926;30;138118;-39
2022/01/16 11:15:27;;;;;;;55.97;22.88;;;;;;;3.62;100.00;102130.03;2570718;30;136823;-38
2022/01/16 11:17:56;;;;;;;53.00;23.00;;;;;;;3.62;100.00;102128.19;2569339;30;138499;-39
2022/01/16 11:20:36;;;;;;;53.17;22.77;;;;;;;3.66;100.00;102128.78;2569663;30;137669;-38
2022/01/16 11:23:31;;;;;;;50.58;23.27;;;;;;;3.70;100.00;102124.81;2569086;30;138206;-38
2022/01/16 11:25:58;;;;;;;57.65;23.50;;;;;;;3.71;100.00;102126.50;2568330;30;137034;-38
2022/01/16 11:28:26;;;;;;;60.53;24.08;;;;;;;3.77;100.00;102119.72;2568971;30;139368;-38
2022/01/16 11:30:59;;;;;;;55.22;23.02;;;;;;;3.82;100.00;102112.94;2568218;30;138091;-38
2022/01/16 11:33:29;;;;;;;58.28;22.55;;;;;;;3.89;100.00;102119.50;2566139;30;137456;-38
2022/01/16 11:36:29;;;;;;;61.63;24.75;;;;;;;3.93;100.00;102119.22;2566258;30;137054;-38
2022/01/16 11:39:00;;;;;;;52.13;23.08;;;;;;;3.99;100.00;102122.22;2568799;30;138408;-38
2022/01/16 11:41:34;;;;;;;56.10;23.38;;;;;;;4.05;100.00;102118.13;2571452;30;137716;-37
2022/01/16 11:44:20;;;;;;;56.08;22.98;;;;;;;4.11;100.00;102114.88;2571866;30;138304;-38
2022/01/16 11:46:55;;;;;;;56.88;24.75;;;;;;;4.17;100.00;102111.63;2568927;30;138368;-39
2022/01/16 11:49:38;;;;;;;57.50;23.40;;;;;;;4.29;100.00;102119.63;2570707;30;138992;-38
2022/01/16 11:52:18;;;;;;;54.03;23.23;;;;;;;4.31;100.00;102117.63;2569373;30;137622;-38
2022/01/16 11:54:49;;;;;;;53.97;22.92;;;;;;;4.34;100.00;102117.34;2568427;30;139304;-38
2022/01/16 11:57:28;;;;;;;55.78;22.92;;;;;;;4.38;100.00;102116.06;2570079;30;138426;-38
2022/01/16 12:00:14;;;;;;;52.70;21.85;;;;;;;4.43;100.00;102107.56;2571969;30;137415;-38
2022/01/16 12:02:44;;;;;;;48.67;21.45;;;;;;;4.49;100.00;102108.81;2567741;30;137323;-38
2022/01/16 12:05:22;;;;;;;53.63;21.15;;;;;;;4.52;100.00;102120.22;2568669;30;139380;-38
2022/01/16 12:07:52;;;;;;;50.42;21.50;;;;;;;4.51;99.24;102120.34;2569312;30;136919;-38
2022/01/16 12:10:36;;;;;;;53.28;21.85;;;;;;;4.53;99.12;102127.31;2570116;30;138329;-38
2022/01/16 12:13:05;;;;;;;50.10;20.98;;;;;;;4.42;99.00;102125.59;2571654;30;138132;-39
2022/01/16 12:15:32;;;;;;;47.65;19.17;;;;;;;4.37;98.84;102127.88;2565838;30;137519;-38
2022/01/16 12:18:01;;;;;;;;;;;;;;;4.27;98.59;102137.81;2569515;30;138434;-38